Startpagina
METAR-TAF:

METAR-TAF

Vliegvelden :

Aeropuerto Internacional Malvinas Argentinas

Ushuaia, Argentinië

breedte: 54-48S, lengte: 068-19W, hoogte: 16 m

Actueel weer

Dit bericht is 14 minuten geleden gemaakt, om 01:00 UTC
Wind 5 kt uit het noorden
Temperatuur -2°C
Vochtigheid 86%
Druk 1002 hPa
Zicht 10 km of meer
Weinig wolken op 4000 ft
Gebroken wolken op 10000 ft

METAR: SAWH 240100Z 36005KT 9999 FEW040 BKN100 M02/M04 Q1002

Tijdstip: 22:14 (01:14 UTC)

Verwachting

Dit bericht is 2 uur en het 14 minuten geleden gemaakt, om 23:00 UTC
Verwachting geldig van 24 om 00 UTC tot 24 om 24 UTC
Wind 5 kt uit het noorden
Zicht 10 km of meer
Gebroken wolken op 3000 ft
Gebroken wolken op 9000 ft
Wijzigt naar
van 24 om 06 UTC tot 24 om 08 UTC
Gebroken wolken op 2000 ft
Geheel bewolkt op 5000 ft
lichte sneeuw
Wijzigt naar
van 24 om 13 UTC tot 24 om 15 UTC
Wind 10 kt uit het oostnoordoosten

TAF: SAWH 232300Z 2400/2424 36005KT 9999 BKN030 BKN090 TX03/2418Z TNM03/2402Z BECMG 2406/2408 -SN BKN020 OVC050 BECMG 2413/2415 07010KT

Waarnemingen en weersverwachtingen van meer dan 4000 vliegvelden (METAR en TAF).

De beschikbare stations zijn de gele en rode punten op de kaart.

Ga met uw muis naar het station om de naam te zien.

Klik dan om waarnemingen en weersverwachtingen te zien.

kaart wijzigen: klik op de groene knoppen met een zwart kruis om in te zoomen, op de groene knop met een streepje om uit te zoomen of op de groene pijlen voor aangrenzende kaarten.


METAR-TAF: